Mermaid Express — H9PV — position and weather

sailwx.info

Track history (hours):
 
Tides and Currents Weather Stations Pressure Air Temp Water Temp Dewpoint Dewpoint Depression Visibility Wind Speed Wind Dir Waves Ship Positions

Mermaid Express

Last reported at 2015-Feb-22 20:33 UTC. Time now 2015-Mar-06 06:07 UTC.
Position N 39°07' W 023°40'.
Warning: this ship's position is 11 days out of date.

Length 179 m; draft 7.3 m.

Type: Tanker. MMSI: 352866000.

Date/timePositionNaut miles runAvg speedWind from/ knotsBaromVisibWave heightAir tempDewpointWater temp
2015-Feb-22 20:33N 39°07' W 023°40'4812.0
2015-Feb-22 16:33N 38°47' W 024°36'1212.0
2015-Feb-22 15:33N 38°42' W 024°50'1211.9
2015-Feb-22 14:34N 38°37' W 025°04'1211.8
2015-Feb-22 13:33N 38°33' W 025°18'1211.8
2015-Feb-22 12:33N 38°27' W 025°32'1111.3
2015-Feb-22 11:33N 38°23' W 025°45'1111.5
2015-Feb-22 10:34N 38°18' W 025°58'1111.4
2015-Feb-22 09:33N 38°13' W 026°11'1111.3
2015-Feb-22 08:34N 38°08' W 026°24'1111.5
2015-Feb-22 07:34N 38°04' W 026°38'1211.7
2015-Feb-22 06:33N 37°59' W 026°51'1212.1
2015-Feb-22 05:33N 37°54' W 027°05'1212.0
2015-Feb-22 04:34N 37°50' W 027°19'1212.0
2015-Feb-22 03:34N 37°45' W 027°33'1212.2
2015-Feb-22 02:33N 37°41' W 027°48'1212.3
2015-Feb-22 01:34N 37°38' W 028°03'1212.3
2015-Feb-22 00:34N 37°33' W 028°17'1212.2
2015-Feb-21 23:33N 37°29' W 028°32'1211.9
2015-Feb-21 22:33N 37°25' W 028°46'1110.9
2015-Feb-21 21:33N 37°19' W 028°58'1111.3
2015-Feb-21 20:34N 37°14' W 029°10'1111.3
2015-Feb-21 19:33N 37°09' W 029°23'1211.3
2015-Feb-21 18:32N 37°04' W 029°36'1210.7
2015-Feb-21 17:23N 36°60' W 029°51'  
2015-Feb-13 10:33N 40°27' W 073°50'9 9.2
2015-Feb-13 09:33N 40°31' W 074°01'6 6.5
2015-Feb-13 08:33N 40°38' W 074°04'0 0.0
2015-Feb-13 07:33N 40°38' W 074°04'0 0.0
2015-Feb-13 06:33N 40°38' W 074°04'0 0.1
2015-Feb-13 05:33N 40°38' W 074°04'4 3.8
2015-Feb-13 04:33N 40°39' W 074°08'5 4.6
2015-Feb-13 03:33N 40°35' W 074°12'0 0.2
2015-Feb-13 02:12N 40°35' W 074°13'0 0.0
2015-Feb-13 01:18N 40°35' W 074°13'0 0.0
2015-Feb-13 00:30N 40°35' W 074°13'0 0.0
2015-Feb-12 23:24N 40°35' W 074°13'0 0.0
2015-Feb-12 22:30N 40°35' W 074°13'0 0.0
2015-Feb-12 21:30N 40°35' W 074°13'  
Track history (hours):
 
Tides and Currents Weather Stations Pressure Air Temp Water Temp Dewpoint Dewpoint Depression Visibility Wind Speed Wind Dir Waves Ship Positions

Mermaid Express

Last reported at 2015-Feb-22 20:33 UTC. Time now 2015-Mar-06 06:07 UTC.
Position N 39°07' W 023°40'.
Warning: this ship's position is 11 days out of date.

Length 179 m; draft 7.3 m.

Type: Tanker. MMSI: 352866000.

Date/timePositionNaut miles runAvg speedWind from/ knotsBaromVisibWave heightAir tempDewpointWater temp
2015-Feb-22 20:33N 39°07' W 023°40'4812.0
2015-Feb-22 16:33N 38°47' W 024°36'1212.0
2015-Feb-22 15:33N 38°42' W 024°50'1211.9
2015-Feb-22 14:34N 38°37' W 025°04'1211.8
2015-Feb-22 13:33N 38°33' W 025°18'1211.8
2015-Feb-22 12:33N 38°27' W 025°32'1111.3
2015-Feb-22 11:33N 38°23' W 025°45'1111.5
2015-Feb-22 10:34N 38°18' W 025°58'1111.4
2015-Feb-22 09:33N 38°13' W 026°11'1111.3
2015-Feb-22 08:34N 38°08' W 026°24'1111.5
2015-Feb-22 07:34N 38°04' W 026°38'1211.7
2015-Feb-22 06:33N 37°59' W 026°51'1212.1
2015-Feb-22 05:33N 37°54' W 027°05'1212.0
2015-Feb-22 04:34N 37°50' W 027°19'1212.0
2015-Feb-22 03:34N 37°45' W 027°33'1212.2
2015-Feb-22 02:33N 37°41' W 027°48'1212.3
2015-Feb-22 01:34N 37°38' W 028°03'1212.3
2015-Feb-22 00:34N 37°33' W 028°17'1212.2
2015-Feb-21 23:33N 37°29' W 028°32'1211.9
2015-Feb-21 22:33N 37°25' W 028°46'1110.9
2015-Feb-21 21:33N 37°19' W 028°58'1111.3
2015-Feb-21 20:34N 37°14' W 029°10'1111.3
2015-Feb-21 19:33N 37°09' W 029°23'1211.3
2015-Feb-21 18:32N 37°04' W 029°36'1210.7
2015-Feb-21 17:23N 36°60' W 029°51'  
2015-Feb-13 10:33N 40°27' W 073°50'9 9.2
2015-Feb-13 09:33N 40°31' W 074°01'6 6.5
2015-Feb-13 08:33N 40°38' W 074°04'0 0.0
2015-Feb-13 07:33N 40°38' W 074°04'0 0.0
2015-Feb-13 06:33N 40°38' W 074°04'0 0.1
2015-Feb-13 05:33N 40°38' W 074°04'4 3.8
2015-Feb-13 04:33N 40°39' W 074°08'5 4.6
2015-Feb-13 03:33N 40°35' W 074°12'0 0.2
2015-Feb-13 02:12N 40°35' W 074°13'0 0.0
2015-Feb-13 01:18N 40°35' W 074°13'0 0.0
2015-Feb-13 00:30N 40°35' W 074°13'0 0.0
2015-Feb-12 23:24N 40°35' W 074°13'0 0.0
2015-Feb-12 22:30N 40°35' W 074°13'0 0.0
2015-Feb-12 21:30N 40°35' W 074°13'  

Dump ship's entire track history